createdAt,value
2023-05-10T00:00:11.621Z,100.00
2023-05-10T00:02:38.312Z,100.00
2023-05-10T00:05:05.972Z,100.00
2023-05-10T00:07:32.511Z,100.00
2023-05-10T00:09:59.023Z,100.00
2023-05-10T00:12:25.700Z,100.00
2023-05-10T00:14:52.186Z,100.00
2023-05-10T00:17:18.613Z,100.00
2023-05-10T00:19:45.045Z,100.00
2023-05-10T00:22:11.526Z,100.00
2023-05-10T00:24:38.018Z,100.00
2023-05-10T00:27:04.990Z,100.00
2023-05-10T00:29:32.688Z,100.00
2023-05-10T00:31:59.291Z,100.00
2023-05-10T00:34:25.748Z,100.00
2023-05-10T00:36:52.187Z,100.00
2023-05-10T00:39:18.674Z,100.00
2023-05-10T00:41:45.229Z,100.00
2023-05-10T00:44:11.835Z,100.00
2023-05-10T00:46:38.528Z,100.00
2023-05-10T00:49:05.410Z,100.00
2023-05-10T00:51:32.661Z,100.00
2023-05-10T00:53:59.526Z,100.00
2023-05-10T00:56:26.624Z,100.00
2023-05-10T00:58:53.116Z,100.00
2023-05-10T01:01:20.584Z,100.00
2023-05-10T01:03:47.873Z,100.00
2023-05-10T01:06:14.276Z,100.00
2023-05-10T01:08:41.225Z,100.00
2023-05-10T01:11:07.849Z,100.00
2023-05-10T01:13:38.372Z,100.00
2023-05-10T01:16:05.990Z,100.00
2023-05-10T01:18:42.877Z,100.00
2023-05-10T01:21:45.779Z,100.00
2023-05-10T01:24:43.145Z,100.00
2023-05-10T01:27:25.918Z,100.00
2023-05-10T01:30:15.921Z,100.00
2023-05-10T01:33:16.911Z,100.00
2023-05-10T01:36:18.833Z,100.00
2023-05-10T01:39:02.214Z,100.00
2023-05-10T01:41:28.541Z,100.00
2023-05-10T01:43:58.320Z,100.00
2023-05-10T01:46:30.876Z,100.00
2023-05-10T01:49:00.344Z,100.00
2023-05-10T01:51:30.521Z,100.00
2023-05-10T01:54:03.011Z,100.00
2023-05-10T01:56:32.998Z,100.00
2023-05-10T01:59:01.826Z,100.00
2023-05-10T02:01:28.860Z,100.00
2023-05-10T02:03:57.912Z,100.00
2023-05-10T02:06:26.093Z,100.00
2023-05-10T02:08:54.814Z,100.00
2023-05-10T02:11:23.002Z,100.00
2023-05-10T02:13:52.684Z,100.00
2023-05-10T02:16:24.792Z,100.00
2023-05-10T02:18:53.165Z,100.00
2023-05-10T02:21:22.564Z,100.00
2023-05-10T02:23:52.728Z,100.00
2023-05-10T02:26:22.010Z,100.00
2023-05-10T02:28:50.094Z,100.00
2023-05-10T02:31:17.741Z,100.00
2023-05-10T02:33:45.751Z,100.00
2023-05-10T02:36:13.800Z,100.00
2023-05-10T02:38:41.440Z,100.00
2023-05-10T02:41:09.671Z,100.00
2023-05-10T02:43:36.639Z,100.00
2023-05-10T02:46:03.520Z,100.00
2023-05-10T02:48:30.609Z,100.00
2023-05-10T02:51:05.675Z,100.00
2023-05-10T02:53:34.075Z,100.00
2023-05-10T02:56:05.245Z,100.00
2023-05-10T02:58:31.705Z,100.00
2023-05-10T03:00:58.133Z,100.00
2023-05-10T03:03:24.590Z,100.00
2023-05-10T03:05:51.111Z,100.00
2023-05-10T03:08:17.807Z,100.00
2023-05-10T03:11:19.437Z,100.00
2023-05-10T03:14:13.154Z,100.00
2023-05-10T03:17:05.167Z,100.00
2023-05-10T03:19:40.826Z,100.00
2023-05-10T03:22:11.645Z,100.00
2023-05-10T03:24:42.184Z,100.00
2023-05-10T03:27:09.534Z,100.00
2023-05-10T03:29:37.095Z,100.00
2023-05-10T03:32:05.013Z,100.00
2023-05-10T03:34:34.864Z,100.00
2023-05-10T03:37:01.376Z,100.00
2023-05-10T03:39:27.927Z,100.00
2023-05-10T03:41:54.389Z,100.00
2023-05-10T03:44:21.032Z,100.00
2023-05-10T03:46:47.711Z,100.00
2023-05-10T03:49:14.335Z,100.00
2023-05-10T03:51:40.971Z,100.00
2023-05-10T03:54:07.782Z,100.00
2023-05-10T03:56:34.222Z,100.00
2023-05-10T03:59:00.691Z,100.00
2023-05-10T04:01:27.147Z,100.00
2023-05-10T04:03:53.869Z,100.00
2023-05-10T04:06:20.474Z,100.00
2023-05-10T04:08:46.930Z,100.00
2023-05-10T04:11:14.717Z,100.00
2023-05-10T04:13:41.337Z,100.00
2023-05-10T04:16:08.052Z,100.00
2023-05-10T04:18:34.645Z,100.00
2023-05-10T04:21:01.289Z,100.00
2023-05-10T04:23:28.552Z,100.00
2023-05-10T04:26:01.615Z,100.00
2023-05-10T04:28:28.223Z,100.00
2023-05-10T04:30:54.626Z,100.00
2023-05-10T04:33:21.142Z,100.00
2023-05-10T04:35:47.568Z,100.00
2023-05-10T04:38:14.095Z,100.00
2023-05-10T04:40:40.576Z,100.00
2023-05-10T04:43:07.105Z,100.00
2023-05-10T04:45:33.516Z,100.00
2023-05-10T04:48:00.080Z,100.00
2023-05-10T04:50:26.835Z,100.00
2023-05-10T04:52:53.523Z,100.00
2023-05-10T04:55:20.150Z,100.00
2023-05-10T04:57:46.570Z,100.00
2023-05-10T05:00:13.415Z,100.00
2023-05-10T05:02:44.613Z,100.00
2023-05-10T05:05:11.233Z,100.00
2023-05-10T05:07:38.395Z,100.00
2023-05-10T05:10:09.331Z,100.00
2023-05-10T05:12:36.407Z,100.00
2023-05-10T05:15:03.697Z,100.00
2023-05-10T05:17:33.023Z,100.00
2023-05-10T05:19:59.605Z,100.00
2023-05-10T05:22:29.273Z,100.00
2023-05-10T05:24:56.798Z,100.00
2023-05-10T05:27:25.187Z,100.00
2023-05-10T05:29:53.278Z,100.00
2023-05-10T05:32:20.428Z,100.00
2023-05-10T05:34:47.130Z,100.00
2023-05-10T05:37:15.540Z,100.00
2023-05-10T05:39:42.151Z,100.00
2023-05-10T05:42:09.157Z,100.00
2023-05-10T05:44:35.808Z,100.00
2023-05-10T05:47:02.320Z,100.00
2023-05-10T05:49:29.702Z,100.00
2023-05-10T05:51:59.848Z,100.00
2023-05-10T05:54:26.319Z,100.00
2023-05-10T05:57:00.954Z,100.00
2023-05-10T05:59:28.435Z,100.00
2023-05-10T06:01:55.222Z,100.00
2023-05-10T06:04:21.964Z,100.00
2023-05-10T06:06:48.607Z,100.00
2023-05-10T06:09:15.175Z,100.00
2023-05-10T06:11:41.603Z,100.00
2023-05-10T06:14:08.882Z,100.00
2023-05-10T06:16:36.075Z,100.00
2023-05-10T06:19:03.552Z,100.00
2023-05-10T06:21:30.204Z,100.00
2023-05-10T06:23:56.871Z,100.00
2023-05-10T06:26:23.601Z,100.00
2023-05-10T06:28:50.247Z,100.00
2023-05-10T06:31:17.180Z,100.00
2023-05-10T06:33:43.720Z,100.00
2023-05-10T06:36:10.277Z,100.00
2023-05-10T06:38:37.046Z,100.00
2023-05-10T06:41:04.045Z,100.00
2023-05-10T06:43:30.552Z,100.00
2023-05-10T06:45:57.138Z,100.00
2023-05-10T06:48:23.991Z,100.00
2023-05-10T06:50:50.614Z,100.00
2023-05-10T06:53:17.137Z,100.00
2023-05-10T06:55:43.944Z,100.00
2023-05-10T06:58:10.369Z,100.00
2023-05-10T07:00:40.232Z,98.62
2023-05-10T07:03:07.200Z,97.24
2023-05-10T07:05:33.883Z,97.59
2023-05-10T07:08:00.923Z,96.42
2023-05-10T07:10:27.569Z,96.66
2023-05-10T07:12:54.247Z,95.77
2023-05-10T07:15:20.943Z,96.71
2023-05-10T07:17:47.650Z,97.93
2023-05-10T07:20:14.380Z,95.57
2023-05-10T07:22:40.825Z,96.22
2023-05-10T07:25:07.718Z,97.11
2023-05-10T07:27:34.206Z,95.47
2023-05-10T07:30:01.633Z,95.52
2023-05-10T07:32:28.316Z,95.18
2023-05-10T07:34:54.962Z,94.76
2023-05-10T07:37:21.597Z,94.16
2023-05-10T07:39:48.098Z,94.62
2023-05-10T07:42:14.879Z,93.83
2023-05-10T07:44:41.410Z,94.07
2023-05-10T07:47:07.850Z,93.37
2023-05-10T07:49:34.437Z,93.18
2023-05-10T07:52:01.134Z,93.62
2023-05-10T07:54:27.628Z,92.43
2023-05-10T07:56:54.071Z,93.26
2023-05-10T07:59:21.022Z,91.76
2023-05-10T08:01:47.684Z,91.62
2023-05-10T08:04:14.222Z,88.90
2023-05-10T08:06:41.391Z,89.96
2023-05-10T08:09:08.482Z,89.20
2023-05-10T08:11:35.330Z,88.86
2023-05-10T08:14:01.883Z,87.24
2023-05-10T08:16:28.516Z,84.73
2023-05-10T08:18:56.385Z,85.36
2023-05-10T08:21:23.127Z,87.22
2023-05-10T08:23:50.030Z,86.58
2023-05-10T08:26:16.722Z,85.23
2023-05-10T08:28:43.242Z,86.30
2023-05-10T08:31:09.704Z,87.75
2023-05-10T08:33:36.289Z,87.82
2023-05-10T08:36:02.859Z,88.54
2023-05-10T08:38:29.475Z,88.06
2023-05-10T08:41:00.418Z,88.70
2023-05-10T08:43:29.833Z,89.17
2023-05-10T08:45:59.841Z,90.79
2023-05-10T08:48:27.592Z,90.16
2023-05-10T08:50:57.605Z,89.31
2023-05-10T08:53:26.193Z,89.17
2023-05-10T08:55:53.235Z,90.87
2023-05-10T08:58:20.572Z,90.48
2023-05-10T09:00:49.590Z,89.73
2023-05-10T09:03:16.594Z,91.37
2023-05-10T09:05:43.317Z,90.63
2023-05-10T09:08:10.380Z,91.50
2023-05-10T09:10:38.685Z,91.57
2023-05-10T09:13:05.846Z,90.54
2023-05-10T09:15:32.304Z,88.80
2023-05-10T09:18:00.498Z,89.33
2023-05-10T09:20:27.132Z,88.47
2023-05-10T09:22:53.641Z,84.04
2023-05-10T09:25:20.451Z,82.44
2023-05-10T09:27:48.673Z,80.79
2023-05-10T09:30:25.290Z,78.97
2023-05-10T09:32:52.109Z,79.62
2023-05-10T09:35:20.689Z,79.30
2023-05-10T09:37:50.058Z,78.61
2023-05-10T09:40:22.075Z,74.22
2023-05-10T09:43:11.879Z,74.43
2023-05-10T09:45:39.177Z,74.71
2023-05-10T09:48:06.960Z,74.41
2023-05-10T09:50:34.999Z,71.66
2023-05-10T09:53:04.422Z,70.78
2023-05-10T09:55:41.393Z,68.24
2023-05-10T09:58:11.487Z,69.65
2023-05-10T10:00:42.650Z,68.12
2023-05-10T10:03:17.214Z,70.02
2023-05-10T10:05:45.445Z,70.54
2023-05-10T10:08:13.145Z,68.85
2023-05-10T10:10:41.490Z,68.05
2023-05-10T10:13:08.835Z,67.13
2023-05-10T10:15:37.918Z,68.08
2023-05-10T10:18:06.608Z,68.10
2023-05-10T10:20:33.075Z,66.95
2023-05-10T10:22:59.554Z,66.34
2023-05-10T10:25:26.600Z,67.36
2023-05-10T10:27:53.126Z,66.89
2023-05-10T10:30:38.383Z,67.19
2023-05-10T10:33:28.884Z,70.19
2023-05-10T10:35:59.002Z,69.22
2023-05-10T10:38:25.845Z,69.13
2023-05-10T10:41:27.663Z,70.42
2023-05-10T10:44:26.343Z,70.05
2023-05-10T10:47:25.097Z,72.55
2023-05-10T10:49:53.044Z,74.32
2023-05-10T10:52:32.185Z,74.88
2023-05-10T10:55:02.898Z,75.12
2023-05-10T10:57:33.446Z,74.22
2023-05-10T11:00:41.728Z,73.05
2023-05-10T11:03:14.233Z,73.03
2023-05-10T11:05:42.641Z,73.81
2023-05-10T11:08:14.920Z,74.14
2023-05-10T11:10:55.961Z,75.85
2023-05-10T11:13:32.655Z,74.80
2023-05-10T11:16:00.533Z,75.80
2023-05-10T11:18:31.469Z,77.13
2023-05-10T11:21:04.268Z,76.44
2023-05-10T11:23:52.210Z,74.07
2023-05-10T11:26:19.515Z,76.81
2023-05-10T11:28:47.429Z,76.01
2023-05-10T11:31:21.221Z,75.02
2023-05-10T11:33:48.568Z,76.10
2023-05-10T11:36:16.948Z,74.12
2023-05-10T11:38:43.519Z,73.95
2023-05-10T11:41:12.392Z,74.16
2023-05-10T11:43:42.960Z,73.37
2023-05-10T11:46:12.898Z,71.30
2023-05-10T11:48:41.063Z,72.17
2023-05-10T11:51:08.901Z,71.78
2023-05-10T11:53:35.533Z,70.89
2023-05-10T11:56:06.645Z,71.49
2023-05-10T11:58:33.669Z,71.92
2023-05-10T12:01:01.385Z,73.11
2023-05-10T12:03:28.933Z,72.95
2023-05-10T12:05:56.863Z,73.88
2023-05-10T12:08:25.977Z,74.93
2023-05-10T12:10:53.285Z,74.36
2023-05-10T12:13:21.947Z,76.42
2023-05-10T12:15:48.920Z,73.95
2023-05-10T12:18:16.111Z,73.82
2023-05-10T12:20:43.428Z,72.44
2023-05-10T12:23:10.942Z,73.29
2023-05-10T12:25:39.528Z,72.29
2023-05-10T12:28:08.609Z,74.28
2023-05-10T12:30:36.629Z,74.42
2023-05-10T12:33:08.997Z,72.95
2023-05-10T12:35:46.235Z,72.46
2023-05-10T12:38:38.402Z,71.54
2023-05-10T12:41:07.234Z,71.84
2023-05-10T12:43:34.976Z,72.46
2023-05-10T12:46:20.112Z,70.33
2023-05-10T12:48:48.374Z,71.65
2023-05-10T12:51:17.928Z,70.73
2023-05-10T12:53:48.735Z,70.07
2023-05-10T12:56:16.236Z,70.26
2023-05-10T12:58:43.044Z,68.95
2023-05-10T13:01:09.837Z,67.52
2023-05-10T13:03:36.312Z,64.79
2023-05-10T13:06:03.339Z,65.46
2023-05-10T13:08:34.026Z,61.88
2023-05-10T13:11:04.134Z,62.05
2023-05-10T13:13:30.748Z,63.88
2023-05-10T13:15:57.157Z,62.75
2023-05-10T13:18:27.393Z,59.99
2023-05-10T13:20:55.126Z,60.46
2023-05-10T13:23:21.561Z,60.85
2023-05-10T13:25:48.506Z,61.03
2023-05-10T13:28:15.068Z,61.62
2023-05-10T13:30:41.533Z,60.88
2023-05-10T13:33:08.020Z,61.32
2023-05-10T13:35:34.530Z,58.14
2023-05-10T13:38:03.925Z,57.76
2023-05-10T13:40:30.456Z,59.18
2023-05-10T13:42:56.929Z,59.26
2023-05-10T13:45:23.456Z,58.51
2023-05-10T13:47:49.867Z,58.94
2023-05-10T13:50:16.422Z,58.19
2023-05-10T13:52:42.920Z,58.82
2023-05-10T13:55:09.525Z,59.42
2023-05-10T13:57:36.943Z,60.92
2023-05-10T14:00:04.235Z,62.88
2023-05-10T14:02:30.934Z,61.98
2023-05-10T14:04:57.590Z,64.67
2023-05-10T14:07:24.108Z,66.57
2023-05-10T14:09:50.625Z,68.77
2023-05-10T14:12:17.290Z,69.79
2023-05-10T14:14:43.789Z,70.70
2023-05-10T14:17:12.415Z,70.14
2023-05-10T14:19:40.173Z,69.82
2023-05-10T14:22:06.967Z,70.82
2023-05-10T14:24:33.655Z,71.90
2023-05-10T14:27:00.114Z,74.65
2023-05-10T14:29:27.064Z,71.38
2023-05-10T14:31:53.606Z,72.05
2023-05-10T14:34:20.112Z,70.69
2023-05-10T14:36:46.611Z,72.39
2023-05-10T14:39:14.225Z,73.10
2023-05-10T14:41:45.452Z,74.30
2023-05-10T14:44:12.053Z,74.76
2023-05-10T14:46:39.157Z,72.60
2023-05-10T14:49:05.626Z,72.86
2023-05-10T14:51:32.726Z,72.39
2023-05-10T14:53:59.272Z,71.39
2023-05-10T14:56:26.786Z,73.01
2023-05-10T14:58:53.340Z,69.72
2023-05-10T15:01:20.224Z,70.04
2023-05-10T15:03:47.409Z,69.05
2023-05-10T15:06:17.051Z,68.38
2023-05-10T15:08:43.555Z,66.05
2023-05-10T15:11:10.395Z,65.55
2023-05-10T15:13:36.931Z,66.91
2023-05-10T15:16:03.385Z,64.82
2023-05-10T15:18:29.860Z,64.37
2023-05-10T15:20:56.367Z,64.72
2023-05-10T15:23:22.752Z,65.32
2023-05-10T15:25:50.695Z,64.19
2023-05-10T15:28:17.166Z,64.57
2023-05-10T15:30:43.689Z,63.90
2023-05-10T15:33:10.123Z,62.64
2023-05-10T15:35:39.159Z,62.88
2023-05-10T15:38:05.637Z,63.11
2023-05-10T15:40:32.546Z,62.20
2023-05-10T15:42:58.976Z,61.61
2023-05-10T15:45:25.563Z,61.75
2023-05-10T15:47:52.410Z,63.65
2023-05-10T15:50:18.958Z,62.75
2023-05-10T15:52:45.510Z,63.27
2023-05-10T15:55:15.214Z,63.22
2023-05-10T15:57:42.769Z,64.00
2023-05-10T16:00:10.372Z,64.06
2023-05-10T16:02:37.448Z,63.42
2023-05-10T16:05:04.816Z,63.92
2023-05-10T16:07:31.288Z,63.34
2023-05-10T16:09:57.825Z,63.90
2023-05-10T16:12:24.491Z,64.38
2023-05-10T16:14:50.961Z,65.75
2023-05-10T16:17:17.697Z,65.19
2023-05-10T16:19:44.212Z,64.52
2023-05-10T16:22:10.685Z,65.37
2023-05-10T16:24:37.117Z,65.94
2023-05-10T16:27:03.844Z,66.15
2023-05-10T16:29:30.380Z,66.99
2023-05-10T16:31:56.828Z,66.60
2023-05-10T16:34:24.329Z,67.14
2023-05-10T16:36:51.587Z,66.35
2023-05-10T16:39:18.026Z,66.42
2023-05-10T16:41:44.689Z,67.42
2023-05-10T16:44:11.134Z,68.39
2023-05-10T16:46:37.867Z,65.96
2023-05-10T16:49:04.517Z,66.62
2023-05-10T16:51:31.431Z,66.54
2023-05-10T16:54:01.497Z,66.14
2023-05-10T16:56:27.978Z,66.62
2023-05-10T16:58:54.501Z,66.04
2023-05-10T17:01:23.201Z,66.56
2023-05-10T17:03:50.831Z,66.65
2023-05-10T17:06:17.283Z,67.02
2023-05-10T17:08:44.800Z,67.40
2023-05-10T17:11:11.207Z,68.23
2023-05-10T17:13:38.763Z,68.31
2023-05-10T17:16:05.948Z,68.22
2023-05-10T17:18:32.479Z,67.89
2023-05-10T17:20:59.084Z,68.25
2023-05-10T17:23:28.254Z,69.02
2023-05-10T17:25:54.696Z,68.99
2023-05-10T17:28:23.859Z,69.00
2023-05-10T17:30:57.082Z,70.86
2023-05-10T17:33:23.586Z,70.75
2023-05-10T17:35:50.526Z,71.05
2023-05-10T17:38:17.025Z,72.00
2023-05-10T17:40:43.553Z,72.11
2023-05-10T17:43:10.067Z,72.55
2023-05-10T17:45:36.567Z,72.17
2023-05-10T17:48:04.057Z,72.77
2023-05-10T17:50:32.179Z,72.92
2023-05-10T17:52:58.632Z,73.55
2023-05-10T17:55:26.983Z,73.17
2023-05-10T17:57:53.616Z,73.33
2023-05-10T18:00:20.243Z,73.85
2023-05-10T18:02:46.708Z,73.51
2023-05-10T18:05:13.438Z,73.30
2023-05-10T18:07:40.191Z,73.47
2023-05-10T18:10:07.460Z,73.45
2023-05-10T18:12:33.874Z,74.44
2023-05-10T18:15:00.552Z,74.86
2023-05-10T18:17:27.070Z,74.45
2023-05-10T18:19:53.873Z,75.30
2023-05-10T18:22:20.391Z,75.10
2023-05-10T18:24:47.174Z,75.13
2023-05-10T18:27:13.691Z,75.29
2023-05-10T18:29:40.252Z,75.71
2023-05-10T18:32:06.849Z,76.71
2023-05-10T18:34:33.405Z,78.25
2023-05-10T18:37:00.039Z,78.69
2023-05-10T18:39:26.594Z,78.34
2023-05-10T18:41:53.094Z,77.86
2023-05-10T18:44:19.529Z,78.10
2023-05-10T18:46:46.455Z,77.69
2023-05-10T18:49:13.171Z,77.94
2023-05-10T18:51:39.618Z,78.56
2023-05-10T18:54:06.096Z,78.87
2023-05-10T18:56:33.676Z,79.64
2023-05-10T18:59:00.504Z,79.79
2023-05-10T19:01:27.008Z,81.40
2023-05-10T19:03:53.530Z,81.73
2023-05-10T19:06:20.186Z,82.25
2023-05-10T19:08:46.680Z,83.29
2023-05-10T19:11:13.180Z,83.25
2023-05-10T19:13:39.660Z,82.72
2023-05-10T19:16:14.091Z,82.81
2023-05-10T19:18:40.862Z,82.41
2023-05-10T19:21:08.928Z,82.37
2023-05-10T19:23:35.545Z,81.76
2023-05-10T19:26:02.275Z,80.93
2023-05-10T19:28:28.813Z,80.20
2023-05-10T19:30:55.382Z,80.52
2023-05-10T19:33:22.076Z,81.36
2023-05-10T19:35:54.686Z,82.15
2023-05-10T19:38:22.662Z,81.61
2023-05-10T19:40:50.646Z,83.52
2023-05-10T19:43:17.916Z,85.46
2023-05-10T19:45:44.385Z,85.24
2023-05-10T19:48:11.125Z,84.73
2023-05-10T19:50:38.313Z,84.16
2023-05-10T19:53:05.006Z,83.51
2023-05-10T19:55:32.719Z,83.85
2023-05-10T19:58:02.541Z,84.67
2023-05-10T20:00:29.336Z,85.91
2023-05-10T20:02:55.978Z,86.49
2023-05-10T20:05:24.503Z,86.43
2023-05-10T20:07:51.074Z,88.07
2023-05-10T20:10:18.030Z,89.20
2023-05-10T20:12:52.498Z,89.73
2023-05-10T20:15:23.297Z,89.99
2023-05-10T20:17:52.197Z,90.05
2023-05-10T20:20:20.094Z,90.07
2023-05-10T20:22:47.889Z,90.09
2023-05-10T20:25:15.862Z,91.25
2023-05-10T20:27:42.447Z,92.53
2023-05-10T20:30:10.468Z,94.13
2023-05-10T20:32:38.046Z,95.28
2023-05-10T20:35:05.595Z,95.23
2023-05-10T20:37:32.078Z,97.03
2023-05-10T20:39:58.727Z,96.67
2023-05-10T20:42:25.368Z,96.82
2023-05-10T20:44:51.897Z,97.67
2023-05-10T20:47:18.564Z,100.00
2023-05-10T20:49:48.124Z,100.00
2023-05-10T20:52:17.813Z,100.00
2023-05-10T20:54:44.258Z,100.00
2023-05-10T21:00:28.151Z,100.00
2023-05-10T21:02:54.688Z,100.00
2023-05-10T21:05:24.500Z,100.00
2023-05-10T21:07:54.245Z,100.00
2023-05-10T21:10:21.468Z,100.00
2023-05-10T21:12:47.990Z,100.00
2023-05-10T21:15:14.632Z,100.00
2023-05-10T21:17:41.185Z,100.00
2023-05-10T21:20:08.322Z,100.00
2023-05-10T21:22:34.865Z,100.00
2023-05-10T21:25:01.336Z,100.00
2023-05-10T21:27:30.502Z,100.00
2023-05-10T21:29:56.885Z,100.00
2023-05-10T21:32:23.453Z,100.00
2023-05-10T21:34:49.946Z,100.00
2023-05-10T21:37:19.552Z,100.00
2023-05-10T21:39:45.987Z,100.00
2023-05-10T21:42:12.443Z,100.00
2023-05-10T21:44:39.166Z,99.53
2023-05-10T21:47:05.637Z,98.90
2023-05-10T21:49:32.180Z,99.55
2023-05-10T21:51:58.600Z,99.50
2023-05-10T21:54:25.144Z,99.24
2023-05-10T21:56:51.649Z,100.00
2023-05-10T21:59:18.142Z,100.00
2023-05-10T22:01:44.862Z,100.00
2023-05-10T22:04:11.278Z,100.00
2023-05-10T22:06:37.708Z,100.00
2023-05-10T22:09:05.051Z,99.93
2023-05-10T22:11:31.517Z,100.00
2023-05-10T22:13:58.398Z,100.00
2023-05-10T22:16:25.051Z,100.00
2023-05-10T22:18:51.648Z,100.00
2023-05-10T22:21:18.045Z,100.00
2023-05-10T22:23:44.523Z,100.00
2023-05-10T22:26:11.474Z,100.00
2023-05-10T22:28:37.941Z,100.00
2023-05-10T22:31:09.518Z,100.00
2023-05-10T22:33:36.094Z,100.00
2023-05-10T22:36:02.520Z,100.00
2023-05-10T22:38:28.907Z,100.00
2023-05-10T22:40:55.354Z,100.00
2023-05-10T22:43:21.822Z,100.00
2023-05-10T22:45:48.322Z,100.00
2023-05-10T22:48:15.569Z,100.00
2023-05-10T22:50:42.063Z,100.00
2023-05-10T22:53:08.485Z,100.00
2023-05-10T22:55:36.518Z,100.00
2023-05-10T22:58:02.971Z,100.00
2023-05-10T23:00:29.448Z,100.00
2023-05-10T23:02:56.048Z,100.00
2023-05-10T23:05:22.554Z,100.00
2023-05-10T23:07:53.131Z,100.00
2023-05-10T23:10:20.144Z,100.00
2023-05-10T23:12:46.785Z,100.00
2023-05-10T23:15:13.422Z,100.00
2023-05-10T23:17:39.988Z,100.00
2023-05-10T23:20:07.086Z,100.00
2023-05-10T23:22:33.530Z,100.00
2023-05-10T23:24:59.925Z,100.00
2023-05-10T23:27:30.418Z,100.00
2023-05-10T23:29:57.464Z,100.00
2023-05-10T23:32:24.239Z,100.00
2023-05-10T23:34:50.878Z,100.00
2023-05-10T23:37:17.412Z,100.00
2023-05-10T23:39:43.866Z,100.00
2023-05-10T23:42:10.457Z,100.00
2023-05-10T23:44:36.941Z,100.00
2023-05-10T23:47:03.328Z,100.00
2023-05-10T23:49:30.107Z,100.00
2023-05-10T23:51:56.620Z,100.00
2023-05-10T23:54:23.254Z,100.00
2023-05-10T23:56:51.486Z,100.00
2023-05-10T23:59:17.911Z,100.00
